Terminal Aerodrome Forecast
Issued by NWS

Home | Current Version | Previous Version | Text Only | Print | Product List | Glossary On
Versions: 1 2 3 4 5 6 7 8 9 10 11 12 13 14 15 16 17 18 19 20 21 22 23 24 25 26 27 28 29 30 31 32 33 34
000
FTUS42 KCAE 040200 AAA
TAFDNL
TAF AMD
KDNL 040252Z 0403/0424 11004KT 1/2SM FG VV002
     FM040500 16004KT 1/4SM -DZ FG VV001 WS020/21035KT
     FM041400 23010KT 5SM BR BKN012
     FM041600 24012G20KT P6SM SCT020 BKN045=

USA.gov is the U.S. government's official web portal to all federal, state and local government web resources and services.